createdAt,value
2022-12-25T00:00:42.671Z,60.11
2022-12-25T00:03:09.749Z,60.48
2022-12-25T00:05:39.265Z,60.64
2022-12-25T00:08:07.069Z,60.85
2022-12-25T00:10:34.096Z,61.07
2022-12-25T00:13:01.199Z,61.07
2022-12-25T00:15:28.473Z,61.57
2022-12-25T00:17:55.346Z,61.83
2022-12-25T00:20:22.210Z,62.25
2022-12-25T00:22:49.014Z,62.87
2022-12-25T00:25:15.925Z,62.46
2022-12-25T00:27:42.840Z,62.27
2022-12-25T00:30:10.162Z,62.25
2022-12-25T00:32:37.701Z,60.81
2022-12-25T00:35:05.704Z,61.48
2022-12-25T00:37:32.525Z,60.87
2022-12-25T00:39:59.419Z,60.68
2022-12-25T00:42:27.076Z,60.24
2022-12-25T00:44:53.984Z,61.37
2022-12-25T00:47:20.828Z,61.44
2022-12-25T00:49:47.867Z,61.43
2022-12-25T00:52:14.763Z,61.79
2022-12-25T00:54:41.615Z,61.81
2022-12-25T00:57:08.465Z,62.19
2022-12-25T00:59:35.857Z,62.15
2022-12-25T01:02:22.996Z,61.08
2022-12-25T01:04:51.493Z,60.42
2022-12-25T01:07:19.360Z,60.27
2022-12-25T01:10:06.221Z,59.70
2022-12-25T01:12:34.979Z,60.56
2022-12-25T01:15:02.131Z,59.82
2022-12-25T01:17:29.065Z,60.25
2022-12-25T01:19:55.855Z,60.13
2022-12-25T01:22:22.661Z,60.77
2022-12-25T01:24:49.766Z,60.31
2022-12-25T01:27:16.870Z,60.00
2022-12-25T01:29:45.326Z,59.55
2022-12-25T01:32:12.155Z,59.75
2022-12-25T01:34:39.350Z,60.31
2022-12-25T01:37:07.236Z,60.53
2022-12-25T01:39:34.708Z,60.95
2022-12-25T01:42:01.562Z,60.34
2022-12-25T01:44:37.472Z,60.07
2022-12-25T01:47:06.185Z,61.97
2022-12-25T01:49:38.817Z,61.00
2022-12-25T01:52:14.918Z,60.81
2022-12-25T01:54:50.591Z,61.81
2022-12-25T01:57:23.860Z,61.74
2022-12-25T01:59:51.411Z,61.18
2022-12-25T02:02:18.443Z,61.03
2022-12-25T02:04:55.578Z,60.75
2022-12-25T02:07:25.336Z,60.69
2022-12-25T02:09:52.792Z,60.92
2022-12-25T02:12:19.565Z,61.78
2022-12-25T02:14:48.776Z,61.26
2022-12-25T02:17:31.695Z,61.30
2022-12-25T02:20:23.180Z,61.59
2022-12-25T02:23:05.802Z,61.92
2022-12-25T02:25:48.284Z,62.09
2022-12-25T02:28:27.041Z,61.91
2022-12-25T02:31:01.319Z,62.85
2022-12-25T02:33:55.202Z,62.59
2022-12-25T02:36:28.105Z,62.53
2022-12-25T02:39:20.965Z,62.52
2022-12-25T02:41:52.162Z,61.86
2022-12-25T02:44:41.961Z,61.70
2022-12-25T02:47:29.622Z,61.65
2022-12-25T02:50:16.339Z,61.92
2022-12-25T02:53:03.465Z,61.76
2022-12-25T02:55:57.120Z,62.01
2022-12-25T02:58:45.206Z,60.91
2022-12-25T03:01:38.371Z,60.92
2022-12-25T03:04:28.310Z,60.92
2022-12-25T03:07:06.442Z,61.18
2022-12-25T03:10:01.045Z,60.85
2022-12-25T03:12:50.162Z,60.83
2022-12-25T03:15:38.072Z,60.49
2022-12-25T03:18:10.195Z,60.50
2022-12-25T03:20:56.341Z,60.76
2022-12-25T03:23:48.200Z,60.74
2022-12-25T03:26:33.715Z,60.39
2022-12-25T03:29:00.544Z,60.76
2022-12-25T03:31:38.856Z,60.76
2022-12-25T03:34:51.336Z,61.17
2022-12-25T03:37:42.563Z,61.52
2022-12-25T03:40:56.405Z,61.25
2022-12-25T03:44:06.461Z,60.86
2022-12-25T03:46:55.482Z,61.70
2022-12-25T03:49:45.819Z,61.73
2022-12-25T03:52:35.033Z,61.38
2022-12-25T03:55:25.095Z,61.52
2022-12-25T03:58:10.408Z,61.32
2022-12-25T04:00:55.997Z,61.32
2022-12-25T04:03:41.741Z,61.35
2022-12-25T04:06:27.442Z,62.08
2022-12-25T04:09:13.196Z,61.67
2022-12-25T04:12:02.546Z,60.90
2022-12-25T04:14:48.720Z,60.53
2022-12-25T04:17:34.452Z,61.21
2022-12-25T04:20:20.034Z,61.24
2022-12-25T04:23:05.381Z,62.16
2022-12-25T04:25:51.292Z,63.20
2022-12-25T04:28:36.817Z,62.62
2022-12-25T04:31:22.164Z,62.74
2022-12-25T04:34:07.673Z,61.97
2022-12-25T04:36:34.599Z,61.19
2022-12-25T04:39:01.410Z,61.11
2022-12-25T04:41:28.349Z,61.29
2022-12-25T04:43:55.204Z,61.46
2022-12-25T04:46:22.301Z,61.91
2022-12-25T04:48:49.174Z,62.39
2022-12-25T04:51:25.130Z,60.95
2022-12-25T04:53:53.433Z,60.60
2022-12-25T04:56:21.280Z,61.39
2022-12-25T04:58:49.204Z,61.05
2022-12-25T05:01:16.741Z,61.36
2022-12-25T05:03:43.920Z,61.11
2022-12-25T05:06:11.097Z,60.91
2022-12-25T05:08:38.026Z,61.83
2022-12-25T05:11:07.001Z,60.54
2022-12-25T05:13:33.972Z,61.42
2022-12-25T05:16:01.173Z,60.83
2022-12-25T05:18:28.266Z,61.00
2022-12-25T05:20:55.579Z,60.67
2022-12-25T05:23:23.677Z,61.46
2022-12-25T05:25:50.758Z,59.95
2022-12-25T05:28:17.738Z,59.96
2022-12-25T05:30:44.617Z,60.18
2022-12-25T05:33:11.524Z,59.91
2022-12-25T05:35:39.301Z,59.86
2022-12-25T05:38:07.991Z,60.30
2022-12-25T05:40:35.072Z,61.47
2022-12-25T05:43:01.947Z,61.50
2022-12-25T05:45:28.853Z,60.54
2022-12-25T05:47:55.666Z,60.57
2022-12-25T05:50:22.542Z,60.34
2022-12-25T05:53:08.911Z,60.04
2022-12-25T05:55:36.583Z,60.03
2022-12-25T05:58:04.573Z,60.58
2022-12-25T06:00:32.291Z,59.88
2022-12-25T06:02:59.369Z,60.51
2022-12-25T06:05:26.636Z,59.71
2022-12-25T06:07:53.498Z,57.60
2022-12-25T06:10:20.464Z,54.35
2022-12-25T06:12:47.306Z,51.81
2022-12-25T06:15:14.459Z,49.28
2022-12-25T06:17:41.310Z,47.88
2022-12-25T06:20:08.810Z,46.39
2022-12-25T06:22:35.901Z,45.10
2022-12-25T06:25:03.075Z,44.53
2022-12-25T06:27:29.899Z,42.99
2022-12-25T06:29:56.809Z,42.38
2022-12-25T06:32:23.725Z,41.90
2022-12-25T06:34:50.952Z,42.15
2022-12-25T06:37:17.822Z,42.57
2022-12-25T06:39:44.623Z,44.61
2022-12-25T06:42:11.517Z,45.36
2022-12-25T06:44:38.473Z,45.16
2022-12-25T06:47:05.697Z,46.13
2022-12-25T06:49:32.522Z,45.59
2022-12-25T06:51:59.403Z,45.89
2022-12-25T06:54:27.538Z,44.98
2022-12-25T06:56:54.369Z,45.73
2022-12-25T06:59:21.492Z,45.53
2022-12-25T07:01:55.014Z,44.91
2022-12-25T07:04:38.163Z,43.99
2022-12-25T07:07:09.297Z,44.71
2022-12-25T07:09:38.989Z,44.28
2022-12-25T07:12:23.722Z,42.78
2022-12-25T07:14:53.396Z,44.11
2022-12-25T07:17:21.182Z,45.11
2022-12-25T07:19:48.269Z,44.03
2022-12-25T07:22:15.985Z,42.91
2022-12-25T07:24:43.291Z,42.50
2022-12-25T07:27:10.250Z,43.46
2022-12-25T07:29:37.156Z,41.75
2022-12-25T07:32:04.341Z,42.09
2022-12-25T07:34:31.279Z,40.56
2022-12-25T07:36:58.091Z,40.25
2022-12-25T07:39:24.966Z,39.83
2022-12-25T07:41:51.943Z,41.73
2022-12-25T07:44:18.860Z,40.80
2022-12-25T07:46:46.058Z,40.33
2022-12-25T07:49:13.053Z,40.28
2022-12-25T07:51:40.115Z,40.98
2022-12-25T07:54:07.207Z,40.35
2022-12-25T07:56:34.257Z,40.54
2022-12-25T07:59:01.211Z,39.74
2022-12-25T08:01:29.882Z,39.42
2022-12-25T08:04:02.039Z,38.67
2022-12-25T08:06:34.119Z,38.24
2022-12-25T08:09:05.318Z,38.92
2022-12-25T08:11:32.399Z,37.99
2022-12-25T08:13:59.678Z,37.04
2022-12-25T08:16:26.852Z,37.25
2022-12-25T08:18:54.160Z,37.41
2022-12-25T08:21:21.083Z,38.34
2022-12-25T08:23:48.462Z,38.41
2022-12-25T08:26:20.956Z,38.28
2022-12-25T08:28:49.073Z,38.78
2022-12-25T08:31:22.382Z,39.39
2022-12-25T08:33:51.067Z,39.22
2022-12-25T08:36:18.288Z,39.43
2022-12-25T08:38:45.871Z,39.44
2022-12-25T08:41:13.785Z,38.39
2022-12-25T08:43:40.776Z,38.04
2022-12-25T08:46:08.147Z,38.86
2022-12-25T08:48:35.210Z,38.50
2022-12-25T08:51:03.498Z,37.30
2022-12-25T08:53:30.844Z,37.65
2022-12-25T08:56:04.615Z,37.08
2022-12-25T08:58:32.006Z,36.38
2022-12-25T09:00:58.943Z,35.41
2022-12-25T09:03:26.409Z,35.82
2022-12-25T09:05:54.353Z,36.76
2022-12-25T09:08:21.971Z,34.97
2022-12-25T09:10:49.427Z,35.37
2022-12-25T09:13:16.358Z,36.16
2022-12-25T09:15:43.470Z,36.69
2022-12-25T09:18:10.384Z,37.36
2022-12-25T09:20:37.283Z,36.73
2022-12-25T09:23:08.509Z,37.71
2022-12-25T09:25:38.658Z,38.79
2022-12-25T09:28:05.564Z,36.44
2022-12-25T09:30:32.434Z,36.34
2022-12-25T09:32:59.357Z,37.41
2022-12-25T09:35:26.273Z,38.01
2022-12-25T09:37:53.081Z,36.91
2022-12-25T09:40:23.238Z,37.68
2022-12-25T09:42:54.326Z,36.99
2022-12-25T09:45:36.056Z,36.55
2022-12-25T09:48:03.311Z,35.99
2022-12-25T09:50:55.442Z,35.03
2022-12-25T09:53:30.272Z,34.31
2022-12-25T09:56:27.376Z,35.11
2022-12-25T09:58:54.975Z,34.95
2022-12-25T10:01:27.539Z,35.03
2022-12-25T10:04:05.932Z,34.41
2022-12-25T10:07:09.343Z,33.71
2022-12-25T10:10:14.398Z,34.29
2022-12-25T10:12:50.039Z,33.09
2022-12-25T10:15:25.967Z,34.29
2022-12-25T10:17:52.777Z,34.98
2022-12-25T10:20:50.434Z,34.56
2022-12-25T10:23:29.274Z,35.35
2022-12-25T10:25:56.881Z,35.16
2022-12-25T10:28:45.724Z,34.92
2022-12-25T10:31:22.457Z,34.87
2022-12-25T10:33:51.509Z,34.58
2022-12-25T10:36:21.381Z,34.21
2022-12-25T10:39:49.210Z,35.60
2022-12-25T10:42:39.132Z,34.74
2022-12-25T10:45:09.313Z,35.16
2022-12-25T10:47:42.252Z,35.10
2022-12-25T10:50:18.456Z,35.58
2022-12-25T10:52:57.010Z,35.40
2022-12-25T10:55:28.750Z,35.75
2022-12-25T10:57:58.075Z,36.53
2022-12-25T11:00:28.026Z,36.70
2022-12-25T11:02:55.558Z,35.59
2022-12-25T11:05:30.204Z,36.52
2022-12-25T11:08:00.275Z,36.31
2022-12-25T11:10:32.929Z,36.38
2022-12-25T11:13:01.312Z,36.71
2022-12-25T11:15:44.866Z,36.25
2022-12-25T11:18:23.832Z,36.05
2022-12-25T11:20:56.111Z,36.00
2022-12-25T11:23:25.090Z,36.55
2022-12-25T11:25:58.891Z,36.61
2022-12-25T11:28:27.168Z,37.02
2022-12-25T11:31:13.530Z,37.02
2022-12-25T11:33:51.185Z,37.22
2022-12-25T11:36:24.821Z,37.67
2022-12-25T11:38:52.417Z,37.32
2022-12-25T11:41:31.233Z,38.51
2022-12-25T11:44:02.289Z,37.36
2022-12-25T11:46:33.528Z,38.18
2022-12-25T11:49:08.459Z,38.95
2022-12-25T11:51:43.346Z,37.68
2022-12-25T11:54:24.517Z,37.63
2022-12-25T11:56:52.301Z,37.57
2022-12-25T11:59:51.531Z,37.65
2022-12-25T12:02:35.310Z,38.21
2022-12-25T12:05:45.369Z,37.48
2022-12-25T12:08:14.212Z,38.03
2022-12-25T12:10:43.924Z,37.84
2022-12-25T12:13:21.095Z,37.13
2022-12-25T12:15:50.072Z,37.64
2022-12-25T12:18:21.768Z,38.18
2022-12-25T12:21:07.302Z,37.11
2022-12-25T12:24:01.084Z,37.05
2022-12-25T12:26:34.778Z,37.57
2022-12-25T12:29:03.497Z,36.89
2022-12-25T12:31:43.355Z,37.36
2022-12-25T12:34:26.443Z,37.23
2022-12-25T12:37:06.853Z,37.29
2022-12-25T12:39:38.289Z,37.31
2022-12-25T12:42:18.080Z,37.52
2022-12-25T12:44:46.414Z,38.39
2022-12-25T12:47:37.732Z,37.99
2022-12-25T12:50:05.740Z,37.46
2022-12-25T12:52:35.862Z,37.21
2022-12-25T12:55:07.401Z,37.14
2022-12-25T12:57:40.075Z,35.75
2022-12-25T13:00:18.700Z,33.88
2022-12-25T13:03:13.477Z,24.88
2022-12-25T13:05:48.150Z,18.92
2022-12-25T13:08:33.458Z,17.19
2022-12-25T13:11:25.786Z,15.79
2022-12-25T13:13:55.306Z,18.84
2022-12-25T13:16:33.932Z,25.18
2022-12-25T13:19:06.213Z,27.66
2022-12-25T13:21:34.925Z,30.98
2022-12-25T13:24:04.522Z,31.00
2022-12-25T13:26:31.388Z,32.19
2022-12-25T13:28:58.372Z,33.49
2022-12-25T13:31:27.791Z,33.80
2022-12-25T13:33:58.717Z,35.12
2022-12-25T13:36:30.985Z,35.07
2022-12-25T13:38:59.392Z,35.26
2022-12-25T13:42:01.431Z,35.50
2022-12-25T13:44:31.496Z,36.83
2022-12-25T13:47:15.525Z,36.05
2022-12-25T13:49:42.442Z,36.90
2022-12-25T13:52:15.041Z,38.07
2022-12-25T13:55:00.312Z,36.55
2022-12-25T13:57:31.385Z,37.15
2022-12-25T13:59:59.076Z,37.86
2022-12-25T14:02:32.890Z,38.01
2022-12-25T14:04:59.839Z,38.66
2022-12-25T14:07:27.530Z,38.08
2022-12-25T14:09:58.787Z,38.25
2022-12-25T14:12:28.725Z,39.23
2022-12-25T14:14:57.058Z,39.70
2022-12-25T14:17:24.815Z,39.55
2022-12-25T14:20:05.645Z,39.77
2022-12-25T14:22:36.048Z,40.07
2022-12-25T14:25:03.016Z,41.31
2022-12-25T14:27:32.952Z,41.08
2022-12-25T14:30:00.860Z,40.75
2022-12-25T14:32:31.880Z,41.43
2022-12-25T14:35:06.132Z,41.74
2022-12-25T14:37:34.391Z,42.45
2022-12-25T14:40:26.302Z,42.67
2022-12-25T14:43:04.423Z,43.08
2022-12-25T14:45:38.611Z,42.93
2022-12-25T14:48:25.007Z,43.52
2022-12-25T14:50:58.560Z,43.32
2022-12-25T14:53:33.674Z,44.15
2022-12-25T14:56:01.212Z,44.47
2022-12-25T14:58:31.314Z,43.70
2022-12-25T15:01:03.448Z,44.08
2022-12-25T15:03:35.203Z,45.07
2022-12-25T15:06:22.606Z,45.03
2022-12-25T15:09:02.260Z,45.75
2022-12-25T15:11:29.327Z,44.72
2022-12-25T15:13:56.413Z,45.09
2022-12-25T15:16:29.827Z,44.73
2022-12-25T15:18:57.351Z,46.40
2022-12-25T15:21:30.406Z,45.46
2022-12-25T15:23:59.153Z,46.44
2022-12-25T15:26:27.929Z,45.58
2022-12-25T15:28:54.908Z,46.71
2022-12-25T15:31:26.821Z,46.65
2022-12-25T15:33:55.557Z,46.15
2022-12-25T15:36:23.204Z,45.93
2022-12-25T15:38:50.355Z,47.34
2022-12-25T15:41:43.003Z,47.45
2022-12-25T15:44:12.448Z,47.57
2022-12-25T15:46:39.431Z,48.32
2022-12-25T15:49:06.329Z,48.06
2022-12-25T15:51:33.689Z,48.99
2022-12-25T15:54:00.570Z,49.26
2022-12-25T15:56:28.168Z,49.17
2022-12-25T15:58:55.150Z,49.27
2022-12-25T16:01:22.380Z,49.24
2022-12-25T16:03:49.469Z,48.30
2022-12-25T16:06:18.351Z,48.31
2022-12-25T16:08:46.023Z,48.88
2022-12-25T16:11:13.000Z,48.74
2022-12-25T16:13:39.792Z,48.74
2022-12-25T16:16:07.245Z,48.45
2022-12-25T16:18:34.244Z,49.03
2022-12-25T16:21:01.318Z,49.42
2022-12-25T16:23:28.514Z,49.63
2022-12-25T16:25:55.433Z,49.70
2022-12-25T16:28:22.336Z,50.04
2022-12-25T16:30:49.375Z,49.45
2022-12-25T16:33:16.276Z,49.79
2022-12-25T16:35:44.168Z,49.35
2022-12-25T16:38:11.897Z,49.18
2022-12-25T16:40:38.945Z,50.32
2022-12-25T16:43:05.850Z,51.25
2022-12-25T16:45:38.461Z,51.39
2022-12-25T16:48:06.481Z,51.72
2022-12-25T16:50:33.486Z,51.10
2022-12-25T16:53:00.491Z,51.19
2022-12-25T16:55:30.161Z,51.09
2022-12-25T16:57:57.517Z,51.00
2022-12-25T17:00:24.495Z,51.89
2022-12-25T17:02:51.631Z,52.27
2022-12-25T17:05:19.111Z,51.99
2022-12-25T17:07:47.051Z,51.04
2022-12-25T17:10:14.010Z,51.05
2022-12-25T17:12:40.882Z,51.78
2022-12-25T17:15:08.840Z,50.48
2022-12-25T17:17:36.037Z,51.57
2022-12-25T17:20:03.420Z,52.05
2022-12-25T17:22:30.425Z,51.47
2022-12-25T17:24:57.417Z,51.41
2022-12-25T17:27:24.323Z,51.61
2022-12-25T17:29:51.299Z,51.20
2022-12-25T17:32:18.212Z,51.13
2022-12-25T17:34:45.056Z,51.40
2022-12-25T17:37:12.234Z,52.48
2022-12-25T17:39:39.724Z,52.26
2022-12-25T17:42:06.644Z,53.38
2022-12-25T17:44:33.475Z,51.83
2022-12-25T17:47:01.077Z,51.98
2022-12-25T17:49:28.003Z,52.59
2022-12-25T17:51:54.930Z,52.78
2022-12-25T17:54:21.814Z,52.94
2022-12-25T17:56:49.484Z,53.07
2022-12-25T17:59:18.845Z,53.29
2022-12-25T18:01:46.964Z,53.99
2022-12-25T18:04:14.227Z,53.79
2022-12-25T18:06:41.240Z,55.02
2022-12-25T18:09:09.772Z,54.42
2022-12-25T18:11:39.845Z,54.31
2022-12-25T18:14:08.178Z,54.57
2022-12-25T18:16:37.751Z,56.14
2022-12-25T18:19:05.669Z,55.04
2022-12-25T18:21:32.743Z,55.49
2022-12-25T18:24:03.144Z,56.08
2022-12-25T18:26:30.219Z,55.47
2022-12-25T18:28:57.768Z,55.50
2022-12-25T18:31:26.785Z,55.13
2022-12-25T18:33:54.121Z,55.74
2022-12-25T18:36:24.479Z,56.26
2022-12-25T18:38:53.016Z,55.92
2022-12-25T18:41:21.230Z,55.02
2022-12-25T18:43:54.372Z,55.83
2022-12-25T18:46:25.566Z,56.37
2022-12-25T18:48:55.052Z,57.46
2022-12-25T18:51:22.635Z,56.85
2022-12-25T18:53:49.737Z,56.92
2022-12-25T18:56:18.290Z,56.90
2022-12-25T18:58:46.963Z,56.76
2022-12-25T19:01:22.646Z,56.00
2022-12-25T19:03:50.936Z,55.89
2022-12-25T19:06:24.248Z,57.45
2022-12-25T19:08:51.833Z,57.13
2022-12-25T19:11:19.721Z,57.82
2022-12-25T19:13:47.206Z,57.39
2022-12-25T19:16:14.526Z,57.98
2022-12-25T19:18:42.559Z,58.07
2022-12-25T19:21:10.671Z,59.14
2022-12-25T19:23:38.485Z,58.46
2022-12-25T19:26:06.976Z,58.39
2022-12-25T19:28:34.160Z,58.33
2022-12-25T19:31:01.903Z,58.68
2022-12-25T19:33:31.645Z,59.01
2022-12-25T19:36:08.173Z,59.67
2022-12-25T19:38:35.381Z,59.34
2022-12-25T19:41:17.569Z,59.75
2022-12-25T19:43:47.775Z,59.57
2022-12-25T19:46:21.749Z,58.46
2022-12-25T19:48:49.000Z,58.94
2022-12-25T19:51:26.425Z,59.33
2022-12-25T19:53:53.791Z,59.13
2022-12-25T19:56:20.656Z,58.09
2022-12-25T19:58:47.584Z,59.43
2022-12-25T20:01:19.077Z,60.69
2022-12-25T20:03:47.321Z,59.73
2022-12-25T20:06:21.990Z,59.72
2022-12-25T20:08:52.550Z,59.02
2022-12-25T20:11:20.863Z,58.61
2022-12-25T20:13:48.437Z,59.78
2022-12-25T20:16:15.620Z,58.93
2022-12-25T20:18:42.552Z,58.43
2022-12-25T20:21:14.299Z,58.31
2022-12-25T20:23:46.011Z,58.75
2022-12-25T20:26:14.959Z,59.23
2022-12-25T20:28:42.454Z,58.73
2022-12-25T20:31:14.474Z,59.16
2022-12-25T20:33:41.352Z,59.64
2022-12-25T20:36:08.539Z,59.94
2022-12-25T20:38:37.024Z,59.66
2022-12-25T20:41:31.192Z,59.37
2022-12-25T20:43:58.424Z,60.26
2022-12-25T20:46:26.505Z,60.87
2022-12-25T20:48:54.415Z,59.96
2022-12-25T20:51:23.707Z,60.43
2022-12-25T20:53:51.274Z,60.68
2022-12-25T20:56:21.553Z,60.33
2022-12-25T20:58:52.315Z,61.19
2022-12-25T21:01:19.353Z,60.81
2022-12-25T21:03:46.414Z,60.74
2022-12-25T21:06:13.310Z,61.52
2022-12-25T21:08:41.292Z,61.19
2022-12-25T21:11:09.804Z,60.34
2022-12-25T21:13:42.626Z,61.21
2022-12-25T21:16:11.179Z,60.87
2022-12-25T21:18:38.238Z,60.10
2022-12-25T21:21:07.714Z,60.39
2022-12-25T21:23:38.552Z,60.87
2022-12-25T21:26:23.822Z,60.97
2022-12-25T21:28:54.148Z,61.81
2022-12-25T21:31:21.740Z,60.69
2022-12-25T21:33:53.304Z,61.17
2022-12-25T21:36:24.757Z,60.40
2022-12-25T21:38:56.043Z,60.77
2022-12-25T21:41:23.779Z,60.64
2022-12-25T21:43:51.187Z,59.19
2022-12-25T21:46:18.386Z,59.71
2022-12-25T21:48:45.895Z,59.50
2022-12-25T21:51:40.591Z,60.35
2022-12-25T21:54:08.647Z,59.16
2022-12-25T21:56:43.512Z,58.70
2022-12-25T21:59:20.392Z,59.11
2022-12-25T22:01:48.638Z,59.59
2022-12-25T22:04:17.548Z,57.87
2022-12-25T22:07:04.000Z,59.49
2022-12-25T22:09:31.186Z,59.79
2022-12-25T22:12:17.302Z,60.37
2022-12-25T22:14:54.918Z,59.53
2022-12-25T22:17:50.717Z,60.08
2022-12-25T22:20:26.510Z,59.29
2022-12-25T22:22:53.937Z,58.53
2022-12-25T22:25:21.494Z,58.92
2022-12-25T22:27:49.078Z,57.51
2022-12-25T22:30:19.177Z,55.79
2022-12-25T22:32:46.709Z,56.20
2022-12-25T22:35:14.780Z,56.82
2022-12-25T22:37:42.975Z,58.33
2022-12-25T22:40:12.751Z,57.33
2022-12-25T22:42:41.004Z,57.40
2022-12-25T22:45:08.580Z,56.79
2022-12-25T22:47:35.797Z,56.73
2022-12-25T22:50:02.784Z,57.28
2022-12-25T22:52:29.663Z,59.02
2022-12-25T22:54:56.591Z,57.54
2022-12-25T22:57:23.493Z,56.96
2022-12-25T22:59:53.081Z,57.41
2022-12-25T23:02:20.597Z,57.44
2022-12-25T23:04:47.800Z,57.91
2022-12-25T23:07:15.724Z,58.28
2022-12-25T23:09:44.196Z,57.99
2022-12-25T23:12:31.732Z,59.58
2022-12-25T23:14:59.120Z,59.18
2022-12-25T23:17:44.828Z,59.06
2022-12-25T23:20:50.831Z,59.82
2022-12-25T23:23:36.490Z,59.40
2022-12-25T23:26:09.940Z,58.88
2022-12-25T23:28:56.911Z,59.51
2022-12-25T23:31:28.970Z,60.02
2022-12-25T23:33:56.060Z,61.10
2022-12-25T23:36:23.729Z,59.62
2022-12-25T23:38:50.738Z,61.39
2022-12-25T23:41:17.751Z,60.35
2022-12-25T23:43:44.673Z,61.10
2022-12-25T23:46:11.655Z,60.37
2022-12-25T23:48:38.691Z,60.76
2022-12-25T23:51:06.935Z,60.12
2022-12-25T23:53:34.356Z,60.16
2022-12-25T23:56:02.077Z,60.47
2022-12-25T23:58:29.512Z,61.78
